createdAt,value
2017-10-03T00:00:17.821Z,960.75
2017-10-03T00:00:58.408Z,960.76
2017-10-03T00:01:38.987Z,960.76
2017-10-03T00:02:19.567Z,960.71
2017-10-03T00:03:00.153Z,960.75
2017-10-03T00:03:40.739Z,960.73
2017-10-03T00:04:21.323Z,960.7
2017-10-03T00:05:01.895Z,960.69
2017-10-03T00:05:42.485Z,960.73
2017-10-03T00:06:23.079Z,960.64
2017-10-03T00:07:03.636Z,960.71
2017-10-03T00:07:44.225Z,960.66
2017-10-03T00:08:24.804Z,960.68
2017-10-03T00:09:05.389Z,960.69
2017-10-03T00:09:45.980Z,960.67
2017-10-03T00:10:26.568Z,960.69
2017-10-03T00:11:07.136Z,960.67
2017-10-03T00:11:47.721Z,960.69
2017-10-03T00:12:28.309Z,960.68
2017-10-03T00:13:08.893Z,960.67
2017-10-03T00:13:49.460Z,960.68
2017-10-03T00:14:30.032Z,960.62
2017-10-03T00:15:10.608Z,960.6
2017-10-03T00:15:51.199Z,960.61
2017-10-03T00:16:31.788Z,960.62
2017-10-03T00:17:12.374Z,960.63
2017-10-03T00:17:52.958Z,960.59
2017-10-03T00:18:33.542Z,960.6
2017-10-03T00:19:14.125Z,960.56
2017-10-03T00:19:54.699Z,960.57
2017-10-03T00:20:35.284Z,960.53
2017-10-03T00:21:15.863Z,960.59
2017-10-03T00:21:56.456Z,960.54
2017-10-03T00:22:37.022Z,960.53
2017-10-03T00:23:17.622Z,960.54
2017-10-03T00:23:58.191Z,960.48
2017-10-03T00:24:38.769Z,960.52
2017-10-03T00:25:19.359Z,960.52
2017-10-03T00:25:59.941Z,960.5
2017-10-03T00:26:40.528Z,960.47
2017-10-03T00:27:21.111Z,960.49
2017-10-03T00:28:01.695Z,960.46
2017-10-03T00:28:42.284Z,960.52
2017-10-03T00:29:22.864Z,960.5
2017-10-03T00:30:03.465Z,960.46
2017-10-03T00:30:44.040Z,960.48
2017-10-03T00:31:24.622Z,960.46
2017-10-03T00:32:05.204Z,960.5
2017-10-03T00:32:45.784Z,960.43
2017-10-03T00:33:26.479Z,960.42
2017-10-03T00:34:07.064Z,960.43
2017-10-03T00:34:47.650Z,960.43
2017-10-03T00:35:28.238Z,960.4
2017-10-03T00:36:08.813Z,960.4
2017-10-03T00:36:49.403Z,960.4
2017-10-03T00:37:29.987Z,960.34
2017-10-03T00:38:10.562Z,960.37
2017-10-03T00:38:51.155Z,960.33
2017-10-03T00:39:31.734Z,960.35
2017-10-03T00:40:12.313Z,960.31
2017-10-03T00:40:52.901Z,960.32
2017-10-03T00:41:33.482Z,960.33
2017-10-03T00:42:14.063Z,960.29
2017-10-03T00:42:54.645Z,960.33
2017-10-03T00:43:35.229Z,960.27
2017-10-03T00:44:15.807Z,960.31
2017-10-03T00:44:56.392Z,960.27
2017-10-03T00:45:36.957Z,960.26
2017-10-03T00:46:17.538Z,960.28
2017-10-03T00:46:58.126Z,960.29
2017-10-03T00:47:38.706Z,960.24
2017-10-03T00:48:19.290Z,960.26
2017-10-03T00:49:14.826Z,960.23
2017-10-03T00:49:55.422Z,960.29
2017-10-03T00:50:36.004Z,960.28
2017-10-03T00:51:16.583Z,960.24
2017-10-03T00:51:57.166Z,960.2
2017-10-03T00:52:37.751Z,960.21
2017-10-03T00:53:18.347Z,960.21
2017-10-03T00:53:58.909Z,960.19
2017-10-03T00:54:39.489Z,960.2
2017-10-03T00:55:20.074Z,960.24
2017-10-03T00:56:00.659Z,960.24
2017-10-03T00:56:41.234Z,960.2
2017-10-03T00:57:21.821Z,960.23
2017-10-03T00:58:02.401Z,960.17
2017-10-03T00:58:42.974Z,960.24
2017-10-03T00:59:23.547Z,960.24
2017-10-03T01:00:04.126Z,960.19
2017-10-03T01:00:44.708Z,960.17
2017-10-03T01:01:25.288Z,960.21
2017-10-03T01:02:05.860Z,960.23
2017-10-03T01:02:46.442Z,960.17
2017-10-03T01:03:27.017Z,960.18
2017-10-03T01:04:07.590Z,960.24
2017-10-03T01:04:48.182Z,960.19
2017-10-03T01:05:28.755Z,960.21
2017-10-03T01:06:09.340Z,960.21
2017-10-03T01:06:49.923Z,960.22
2017-10-03T01:07:30.503Z,960.21
2017-10-03T01:08:11.090Z,960.14
2017-10-03T01:08:51.677Z,960.19
2017-10-03T01:09:32.273Z,960.16
2017-10-03T01:10:12.845Z,960.14
2017-10-03T01:10:53.435Z,960.19
2017-10-03T01:11:34.016Z,960.11
2017-10-03T01:12:14.591Z,960.11
2017-10-03T01:12:55.173Z,960.12
2017-10-03T01:13:35.764Z,960.09
2017-10-03T01:14:16.336Z,960.07
2017-10-03T01:14:56.918Z,960.08
2017-10-03T01:16:55.146Z,960.07
2017-10-03T01:17:35.728Z,960.04
2017-10-03T01:18:16.316Z,960.03
2017-10-03T01:18:56.900Z,960.03
2017-10-03T01:19:37.479Z,960
2017-10-03T01:20:18.065Z,959.96
2017-10-03T01:20:58.647Z,959.98
2017-10-03T01:21:39.223Z,959.94
2017-10-03T01:22:19.801Z,959.94
2017-10-03T01:23:00.386Z,959.93
2017-10-03T01:23:40.968Z,959.94
2017-10-03T01:24:21.555Z,959.89
2017-10-03T01:25:02.128Z,959.9
2017-10-03T01:25:42.712Z,959.9
2017-10-03T01:26:23.291Z,959.85
2017-10-03T01:27:04.026Z,959.87
2017-10-03T01:27:44.586Z,959.82
2017-10-03T01:28:25.163Z,959.82
2017-10-03T01:29:05.743Z,959.85
2017-10-03T01:29:46.323Z,959.81
2017-10-03T01:30:26.902Z,959.83
2017-10-03T01:31:07.476Z,959.76
2017-10-03T01:31:48.058Z,959.81
2017-10-03T01:32:28.641Z,959.79
2017-10-03T01:33:09.226Z,959.81
2017-10-03T01:33:49.808Z,959.83
2017-10-03T01:34:30.396Z,959.78
2017-10-03T01:35:10.968Z,959.81
2017-10-03T01:35:51.557Z,959.75
2017-10-03T01:36:32.129Z,959.76
2017-10-03T01:37:12.718Z,959.71
2017-10-03T01:37:53.285Z,959.78
2017-10-03T01:38:33.868Z,959.77
2017-10-03T01:39:14.449Z,959.74
2017-10-03T01:39:55.028Z,959.74
2017-10-03T01:41:47.646Z,959.71
2017-10-03T01:42:28.211Z,959.72
2017-10-03T01:43:08.797Z,959.7
2017-10-03T01:43:49.383Z,959.69
2017-10-03T01:44:29.962Z,959.67
2017-10-03T01:45:10.537Z,959.67
2017-10-03T01:45:51.118Z,959.65
2017-10-03T01:46:31.700Z,959.64
2017-10-03T01:47:12.266Z,959.67
2017-10-03T01:47:52.849Z,959.67
2017-10-03T01:48:33.423Z,959.59
2017-10-03T01:49:14.010Z,959.56
2017-10-03T01:49:54.583Z,959.58
2017-10-03T01:50:35.171Z,959.54
2017-10-03T01:51:15.750Z,959.54
2017-10-03T01:51:56.328Z,959.5
2017-10-03T01:52:36.905Z,959.5
2017-10-03T01:53:17.489Z,959.49
2017-10-03T01:53:58.073Z,959.48
2017-10-03T01:54:38.647Z,959.45
2017-10-03T01:55:19.230Z,959.42
2017-10-03T01:55:59.812Z,959.4
2017-10-03T01:56:40.397Z,959.41
2017-10-03T01:57:20.990Z,959.38
2017-10-03T01:58:17.359Z,959.35
2017-10-03T01:58:57.941Z,959.3
2017-10-03T02:00:55.698Z,959.29
2017-10-03T02:01:36.273Z,959.25
2017-10-03T02:02:16.861Z,959.19
2017-10-03T02:02:57.431Z,959.19
2017-10-03T02:03:38.010Z,959.22
2017-10-03T02:04:18.592Z,959.18
2017-10-03T02:04:59.166Z,959.17
2017-10-03T02:05:39.744Z,959.14
2017-10-03T02:06:20.322Z,959.12
2017-10-03T02:07:00.905Z,959.11
2017-10-03T02:07:41.485Z,959.08
2017-10-03T02:08:22.068Z,959.06
2017-10-03T02:09:02.645Z,959.02
2017-10-03T02:09:43.222Z,959.04
2017-10-03T02:10:23.804Z,959.03
2017-10-03T02:11:04.376Z,959.01
2017-10-03T02:11:44.961Z,959
2017-10-03T02:12:25.532Z,959
2017-10-03T02:13:06.111Z,958.98
2017-10-03T02:13:46.679Z,958.98
2017-10-03T02:14:27.267Z,958.96
2017-10-03T02:15:07.843Z,958.94
2017-10-03T02:15:48.432Z,958.91
2017-10-03T02:16:29.006Z,958.89
2017-10-03T02:17:09.578Z,958.89
2017-10-03T02:17:50.163Z,958.83
2017-10-03T02:18:30.740Z,958.76
2017-10-03T02:19:11.330Z,958.73
2017-10-03T02:19:51.926Z,958.73
2017-10-03T02:20:32.484Z,958.71
2017-10-03T02:21:13.064Z,958.67
2017-10-03T02:21:53.637Z,958.66
2017-10-03T02:22:34.230Z,958.67
2017-10-03T02:23:14.822Z,958.64
2017-10-03T02:23:55.405Z,958.6
2017-10-03T02:24:35.969Z,958.55
2017-10-03T02:25:16.557Z,958.48
2017-10-03T02:25:57.134Z,958.5
2017-10-03T02:26:37.714Z,958.5
2017-10-03T02:27:18.299Z,958.48
2017-10-03T02:27:58.873Z,958.43
2017-10-03T02:28:39.446Z,958.4
2017-10-03T02:29:20.021Z,958.42
2017-10-03T02:30:00.603Z,958.37
2017-10-03T02:30:41.183Z,958.33
2017-10-03T02:31:21.767Z,958.35
2017-10-03T02:32:02.348Z,958.37
2017-10-03T02:32:42.937Z,958.32
2017-10-03T02:33:23.510Z,958.28
2017-10-03T02:34:04.096Z,958.32
2017-10-03T02:34:44.676Z,958.27
2017-10-03T02:35:25.255Z,958.33
2017-10-03T02:36:05.835Z,958.31
2017-10-03T02:36:46.416Z,958.3
2017-10-03T02:37:26.996Z,958.28
2017-10-03T02:38:24.394Z,958.27
2017-10-03T02:39:04.971Z,958.26
2017-10-03T02:39:45.542Z,958.24
2017-10-03T02:40:26.135Z,958.25
2017-10-03T02:41:06.710Z,958.24
2017-10-03T02:41:47.296Z,958.22
2017-10-03T02:42:27.871Z,958.17
2017-10-03T02:43:08.450Z,958.23
2017-10-03T02:43:49.025Z,958.2
2017-10-03T02:44:29.597Z,958.19
2017-10-03T02:45:10.191Z,958.2
2017-10-03T02:45:50.774Z,958.21
2017-10-03T02:46:31.351Z,958.17
2017-10-03T02:47:11.942Z,958.09
2017-10-03T02:47:52.525Z,958.09
2017-10-03T02:48:33.101Z,958.09
2017-10-03T02:49:13.684Z,958.07
2017-10-03T02:49:54.257Z,958.07
2017-10-03T02:50:34.831Z,958.04
2017-10-03T02:51:15.420Z,958.06
2017-10-03T02:51:56.006Z,958.04
2017-10-03T02:52:36.583Z,958
2017-10-03T02:53:17.157Z,957.99
2017-10-03T02:55:14.889Z,957.95
2017-10-03T02:55:55.479Z,957.94
2017-10-03T02:56:36.060Z,957.94
2017-10-03T02:57:16.633Z,957.93
2017-10-03T02:57:57.207Z,957.87
2017-10-03T02:58:37.780Z,957.88
2017-10-03T02:59:18.361Z,957.87
2017-10-03T02:59:58.944Z,957.87
2017-10-03T03:00:39.522Z,957.85
2017-10-03T03:01:20.093Z,957.86
2017-10-03T03:02:00.665Z,957.85
2017-10-03T03:02:41.249Z,957.85
2017-10-03T03:03:21.835Z,957.78
2017-10-03T03:04:02.414Z,957.78
2017-10-03T03:04:42.992Z,957.79
2017-10-03T03:05:23.590Z,957.74
2017-10-03T03:06:04.174Z,957.73
2017-10-03T03:06:44.761Z,957.7
2017-10-03T03:07:25.339Z,957.69
2017-10-03T03:08:05.922Z,957.69
2017-10-03T03:08:46.499Z,957.63
2017-10-03T03:09:27.078Z,957.67
2017-10-03T03:10:07.654Z,957.59
2017-10-03T03:10:48.256Z,957.56
2017-10-03T03:11:28.841Z,957.59
2017-10-03T03:12:09.424Z,957.55
2017-10-03T03:12:50.005Z,957.51
2017-10-03T03:13:30.586Z,957.48
2017-10-03T03:14:11.161Z,957.53
2017-10-03T03:14:51.756Z,957.51
2017-10-03T03:15:32.331Z,957.5
2017-10-03T03:16:12.902Z,957.46
2017-10-03T03:16:53.485Z,957.48
2017-10-03T03:17:34.069Z,957.44
2017-10-03T03:18:14.663Z,957.45
2017-10-03T03:18:55.250Z,957.47
2017-10-03T03:19:35.825Z,957.48
2017-10-03T03:20:16.405Z,957.49
2017-10-03T03:21:12.958Z,957.45
2017-10-03T03:21:53.548Z,957.43
2017-10-03T03:22:34.125Z,957.38
2017-10-03T03:23:14.705Z,957.36
2017-10-03T03:23:55.281Z,957.35
2017-10-03T03:24:35.848Z,957.39
2017-10-03T03:26:53.817Z,957.34
2017-10-03T03:27:34.385Z,957.3
2017-10-03T03:28:14.966Z,957.3
2017-10-03T03:28:55.548Z,957.31
2017-10-03T03:29:36.132Z,957.27
2017-10-03T03:30:16.721Z,957.27
2017-10-03T03:30:57.293Z,957.26
2017-10-03T03:31:37.863Z,957.28
2017-10-03T03:32:18.446Z,957.25
2017-10-03T03:32:59.015Z,957.26
2017-10-03T03:33:39.598Z,957.25
2017-10-03T03:34:20.178Z,957.24
2017-10-03T03:35:00.755Z,957.17
2017-10-03T03:35:41.317Z,957.21
2017-10-03T03:36:21.899Z,957.18
2017-10-03T03:37:02.491Z,957.16
2017-10-03T03:37:43.066Z,957.15
2017-10-03T03:38:23.674Z,957.14
2017-10-03T03:39:04.260Z,957.16
2017-10-03T03:39:44.841Z,957.17
2017-10-03T03:40:25.422Z,957.15
2017-10-03T03:41:06.005Z,957.17
2017-10-03T03:41:46.584Z,957.11
2017-10-03T03:42:27.175Z,957.12
2017-10-03T03:43:07.760Z,957.1
2017-10-03T03:43:48.341Z,957.09
2017-10-03T03:44:28.927Z,957.05
2017-10-03T03:45:09.514Z,957.04
2017-10-03T03:45:50.095Z,957.04
2017-10-03T03:46:30.683Z,957.09
2017-10-03T03:47:11.257Z,957.02
2017-10-03T03:47:51.831Z,957.05
2017-10-03T03:48:32.409Z,957.03
2017-10-03T03:49:12.995Z,957.02
2017-10-03T03:49:53.582Z,956.97
2017-10-03T03:50:34.164Z,956.97
2017-10-03T03:51:14.786Z,957.01
2017-10-03T03:51:55.366Z,956.9
2017-10-03T03:52:35.939Z,956.91
2017-10-03T03:53:16.522Z,956.91
2017-10-03T03:53:57.116Z,956.87
2017-10-03T03:54:37.683Z,956.87
2017-10-03T03:55:18.261Z,956.84
2017-10-03T03:55:58.849Z,956.87
2017-10-03T03:56:39.434Z,956.84
2017-10-03T03:57:20.004Z,956.84
2017-10-03T03:58:00.628Z,956.83
2017-10-03T03:58:41.208Z,956.82
2017-10-03T03:59:21.778Z,956.82
2017-10-03T04:00:02.360Z,956.82
2017-10-03T04:00:42.945Z,956.78
2017-10-03T04:01:23.509Z,956.8
2017-10-03T04:02:04.080Z,956.79
2017-10-03T04:02:44.676Z,956.73
2017-10-03T04:03:25.261Z,956.73
2017-10-03T04:04:05.844Z,956.69
2017-10-03T04:04:46.423Z,956.69
2017-10-03T04:05:27.002Z,956.71
2017-10-03T04:06:07.586Z,956.7
2017-10-03T04:06:48.166Z,956.72
2017-10-03T04:07:28.757Z,956.65
2017-10-03T04:08:09.342Z,956.67
2017-10-03T04:08:49.985Z,956.67
2017-10-03T04:09:30.575Z,956.65
2017-10-03T04:10:11.166Z,956.69
2017-10-03T04:10:51.751Z,956.63
2017-10-03T04:11:32.329Z,956.59
2017-10-03T04:12:12.926Z,956.62
2017-10-03T04:12:53.546Z,956.6
2017-10-03T04:13:34.268Z,956.57
2017-10-03T04:14:14.899Z,956.57
2017-10-03T04:14:55.557Z,956.54
2017-10-03T04:15:36.260Z,956.52
2017-10-03T04:16:16.849Z,956.49
2017-10-03T04:19:41.646Z,956.39
2017-10-03T04:20:22.290Z,956.37
2017-10-03T04:21:02.964Z,956.34
2017-10-03T04:21:43.675Z,956.33
2017-10-03T04:22:24.480Z,956.35
2017-10-03T04:23:05.064Z,956.31
2017-10-03T04:23:45.739Z,956.34
2017-10-03T04:24:26.573Z,956.33
2017-10-03T04:25:07.156Z,956.31
2017-10-03T04:25:47.747Z,956.29
2017-10-03T04:26:28.323Z,956.26
2017-10-03T04:27:08.903Z,956.27
2017-10-03T04:27:49.485Z,956.25
2017-10-03T04:28:30.056Z,956.29
2017-10-03T04:29:10.635Z,956.27
2017-10-03T04:29:51.205Z,956.24
2017-10-03T04:30:31.779Z,956.2
2017-10-03T04:31:12.354Z,956.2
2017-10-03T04:31:52.942Z,956.22
2017-10-03T04:32:33.524Z,956.17
2017-10-03T04:33:14.099Z,956.1
2017-10-03T04:33:54.680Z,956.12
2017-10-03T04:34:35.322Z,956.1
2017-10-03T04:35:16.038Z,956.1
2017-10-03T04:35:56.756Z,956.13
2017-10-03T04:36:37.479Z,956.11
2017-10-03T04:37:18.201Z,956.14
2017-10-03T04:37:58.819Z,956.13
2017-10-03T04:38:39.404Z,956.13
2017-10-03T04:39:20.053Z,956.1
2017-10-03T04:40:00.652Z,956.05
2017-10-03T04:40:41.270Z,956.08
2017-10-03T04:41:22.080Z,956.07
2017-10-03T04:42:02.665Z,956.06
2017-10-03T04:42:43.476Z,956.03
2017-10-03T04:43:24.062Z,956.02
2017-10-03T04:44:04.951Z,956.02
2017-10-03T04:44:45.535Z,956.02
2017-10-03T04:45:26.228Z,956.02
2017-10-03T04:46:07.019Z,956.02
2017-10-03T04:46:47.791Z,956.02
2017-10-03T04:47:28.564Z,956.01
2017-10-03T04:48:09.309Z,955.98
2017-10-03T04:48:50.021Z,955.92
2017-10-03T04:49:30.612Z,956
2017-10-03T04:50:11.216Z,955.97
2017-10-03T04:50:51.786Z,955.91
2017-10-03T04:51:32.367Z,955.9
2017-10-03T04:52:12.936Z,955.89
2017-10-03T04:52:53.512Z,955.92
2017-10-03T04:53:34.076Z,955.87
2017-10-03T04:54:14.657Z,955.91
2017-10-03T04:54:55.236Z,955.8
2017-10-03T04:55:35.823Z,955.81
2017-10-03T04:56:16.412Z,955.77
2017-10-03T04:56:56.993Z,955.73
2017-10-03T04:57:37.589Z,955.79
2017-10-03T04:58:18.169Z,955.8
2017-10-03T04:58:58.754Z,955.81
2017-10-03T04:59:45.964Z,955.81
2017-10-03T05:00:26.533Z,955.76
2017-10-03T05:01:07.124Z,955.79
2017-10-03T05:01:47.708Z,955.74
2017-10-03T05:02:28.297Z,955.71
2017-10-03T05:03:08.881Z,955.82
2017-10-03T05:03:49.471Z,955.78
2017-10-03T05:04:30.042Z,955.77
2017-10-03T05:05:10.626Z,955.78
2017-10-03T05:05:51.210Z,955.82
2017-10-03T05:06:31.793Z,955.81
2017-10-03T05:07:12.354Z,955.79
2017-10-03T05:07:52.934Z,955.87
2017-10-03T05:08:33.521Z,955.82
2017-10-03T05:09:14.098Z,955.85
2017-10-03T05:09:54.671Z,955.98
2017-10-03T05:10:35.250Z,955.92
2017-10-03T05:11:15.898Z,955.94
2017-10-03T05:11:56.479Z,955.92
2017-10-03T05:12:37.245Z,955.9
2017-10-03T05:13:18.061Z,955.86
2017-10-03T05:13:58.643Z,955.85
2017-10-03T05:14:39.355Z,955.83
2017-10-03T05:15:20.023Z,955.85
2017-10-03T05:16:00.726Z,955.88
2017-10-03T05:16:41.454Z,955.86
2017-10-03T05:17:22.093Z,955.8
2017-10-03T05:18:02.728Z,955.81
2017-10-03T05:18:43.395Z,955.79
2017-10-03T05:19:24.092Z,955.79
2017-10-03T05:20:04.675Z,955.82
2017-10-03T05:20:45.265Z,955.8
2017-10-03T05:21:25.983Z,955.77
2017-10-03T05:22:06.628Z,955.78
2017-10-03T05:22:47.412Z,955.79
2017-10-03T05:23:28.007Z,955.72
2017-10-03T05:24:08.773Z,955.78
2017-10-03T05:24:49.393Z,955.75
2017-10-03T05:25:30.114Z,955.79
2017-10-03T05:26:11.063Z,955.73
2017-10-03T05:26:52.007Z,955.71
2017-10-03T05:27:32.585Z,955.68
2017-10-03T05:28:13.170Z,955.71
2017-10-03T05:28:53.750Z,955.8
2017-10-03T05:29:34.339Z,955.69
2017-10-03T05:30:14.912Z,955.74
2017-10-03T05:30:55.551Z,955.74
2017-10-03T05:31:36.111Z,955.81
2017-10-03T05:32:16.734Z,955.71
2017-10-03T05:32:57.404Z,955.66
2017-10-03T05:33:39.237Z,955.7
2017-10-03T05:34:20.939Z,955.66
2017-10-03T05:35:01.934Z,955.72
2017-10-03T05:35:42.528Z,955.66
2017-10-03T05:36:23.106Z,955.68
2017-10-03T05:37:03.701Z,955.67
2017-10-03T05:37:45.171Z,955.76
2017-10-03T05:38:25.770Z,955.71
2017-10-03T05:39:06.353Z,955.72
2017-10-03T05:39:46.938Z,955.73
2017-10-03T05:40:27.524Z,955.8
2017-10-03T05:41:08.111Z,955.8
2017-10-03T05:41:48.691Z,955.84
2017-10-03T05:42:29.273Z,955.94
2017-10-03T05:43:09.857Z,955.93
2017-10-03T05:43:50.430Z,955.91
2017-10-03T05:44:31.000Z,956.04
2017-10-03T05:45:11.707Z,956.07
2017-10-03T05:45:52.478Z,956.13
2017-10-03T05:46:33.213Z,956.24
2017-10-03T05:47:13.864Z,956.42
2017-10-03T05:47:54.442Z,956.67
2017-10-03T05:48:35.136Z,956.9
2017-10-03T05:49:15.994Z,957.2
2017-10-03T05:49:56.739Z,957.16
2017-10-03T05:50:37.509Z,957.29
2017-10-03T05:51:18.094Z,957.39
2017-10-03T05:51:58.655Z,957.48
2017-10-03T05:52:39.233Z,957.6
2017-10-03T05:53:19.934Z,957.6
2017-10-03T05:54:00.659Z,957.68
2017-10-03T05:54:41.643Z,957.55
2017-10-03T05:55:22.213Z,957.28
2017-10-03T05:56:02.797Z,957.21
2017-10-03T05:56:43.378Z,957.09
2017-10-03T05:57:23.959Z,957.13
2017-10-03T05:58:04.534Z,957.08
2017-10-03T05:58:45.111Z,957.15
2017-10-03T05:59:25.689Z,957.26
2017-10-03T06:00:06.295Z,957.26
2017-10-03T06:00:46.976Z,957.28
2017-10-03T06:01:27.592Z,957.32
2017-10-03T06:02:08.172Z,957.32
2017-10-03T06:02:48.745Z,957.3
2017-10-03T06:03:29.314Z,957.29
2017-10-03T06:04:09.898Z,957.36
2017-10-03T06:04:50.462Z,957.34
2017-10-03T06:05:31.056Z,957.34
2017-10-03T06:06:11.636Z,957.29
2017-10-03T06:06:52.223Z,957.26
2017-10-03T06:07:32.809Z,957.29
2017-10-03T06:08:13.387Z,957.29
2017-10-03T06:08:53.970Z,957.27
2017-10-03T06:09:34.619Z,957.28
2017-10-03T06:10:15.203Z,957.26
2017-10-03T06:10:55.789Z,957.31
2017-10-03T06:11:36.386Z,957.32
2017-10-03T06:12:16.962Z,957.32
2017-10-03T06:12:57.541Z,957.3
2017-10-03T06:13:38.154Z,957.34
2017-10-03T06:14:18.821Z,957.42
2017-10-03T06:14:59.459Z,957.42
2017-10-03T06:15:40.044Z,957.46
2017-10-03T06:16:20.658Z,957.54
2017-10-03T06:17:01.256Z,957.58
2017-10-03T06:17:41.841Z,957.61
2017-10-03T06:18:22.607Z,957.7
2017-10-03T06:19:03.755Z,957.76
2017-10-03T06:19:44.338Z,957.83
2017-10-03T06:20:24.954Z,957.84
2017-10-03T06:21:05.543Z,957.86
2017-10-03T06:21:46.126Z,957.89
2017-10-03T06:22:26.917Z,957.86
2017-10-03T06:23:07.493Z,957.82
2017-10-03T06:23:48.074Z,957.8
2017-10-03T06:24:28.688Z,957.75
2017-10-03T06:25:09.287Z,957.65
2017-10-03T06:25:49.861Z,957.62
2017-10-03T06:26:30.599Z,957.55
2017-10-03T06:27:11.380Z,957.51
2017-10-03T06:27:52.087Z,957.48
2017-10-03T06:28:32.671Z,957.46
2017-10-03T06:29:13.242Z,957.52
2017-10-03T06:29:54.000Z,957.55
2017-10-03T06:30:34.584Z,957.56
2017-10-03T06:31:15.169Z,957.6
2017-10-03T06:31:55.777Z,957.65
2017-10-03T06:32:36.401Z,957.69
2017-10-03T06:33:17.080Z,957.77
2017-10-03T06:33:57.894Z,957.83
2017-10-03T06:34:38.656Z,957.85
2017-10-03T06:35:20.221Z,957.9
2017-10-03T06:36:00.854Z,958.01
2017-10-03T06:36:41.477Z,958.02
2017-10-03T06:37:22.063Z,958.06
2017-10-03T06:38:02.799Z,958.09
2017-10-03T06:38:43.635Z,958.11
2017-10-03T06:39:24.250Z,958.15
2017-10-03T06:40:04.782Z,958.22
2017-10-03T06:40:45.489Z,958.3
2017-10-03T06:41:26.072Z,958.27
2017-10-03T06:42:06.648Z,958.32
2017-10-03T06:42:47.345Z,958.33
2017-10-03T06:43:28.110Z,958.39
2017-10-03T06:44:08.692Z,958.36
2017-10-03T06:44:49.332Z,958.42
2017-10-03T06:45:30.112Z,958.36
2017-10-03T06:46:10.693Z,958.36
2017-10-03T06:46:51.306Z,958.3
2017-10-03T06:47:31.889Z,958.35
2017-10-03T06:48:12.544Z,958.37
2017-10-03T06:48:53.303Z,958.37
2017-10-03T06:49:33.887Z,958.37
2017-10-03T06:50:14.468Z,958.34
2017-10-03T06:50:55.058Z,958.36
2017-10-03T06:51:36.494Z,958.34
2017-10-03T06:52:17.033Z,958.31
2017-10-03T06:52:57.616Z,958.23
2017-10-03T06:53:38.176Z,958.26
2017-10-03T06:54:18.764Z,958.27
2017-10-03T06:54:59.348Z,958.23
2017-10-03T06:55:39.931Z,958.27
2017-10-03T06:56:20.519Z,958.27
2017-10-03T06:57:01.110Z,958.3
2017-10-03T06:57:41.694Z,958.36
2017-10-03T06:58:22.312Z,958.37
2017-10-03T06:59:02.890Z,958.38
2017-10-03T06:59:43.457Z,958.43
2017-10-03T07:00:24.977Z,958.51
2017-10-03T07:01:05.956Z,958.58
2017-10-03T07:01:46.764Z,958.61
2017-10-03T07:02:27.376Z,958.71
2017-10-03T07:03:07.954Z,958.77
2017-10-03T07:03:48.522Z,958.84
2017-10-03T07:04:29.089Z,958.82
2017-10-03T07:05:09.699Z,958.88
2017-10-03T07:05:50.302Z,958.91
2017-10-03T07:06:30.895Z,958.95
2017-10-03T07:07:11.590Z,958.92
2017-10-03T07:07:52.480Z,958.97
2017-10-03T07:08:33.135Z,959.13
2017-10-03T07:09:14.838Z,959.11
2017-10-03T07:09:55.474Z,959.17
2017-10-03T07:10:36.402Z,959.18
2017-10-03T07:11:17.124Z,959.12
2017-10-03T07:11:57.799Z,959.16
2017-10-03T07:12:38.495Z,959.16
2017-10-03T07:13:19.411Z,959.27
2017-10-03T07:13:59.829Z,959.18
2017-10-03T07:14:40.444Z,959.05
2017-10-03T07:15:21.179Z,959.12
2017-10-03T07:16:01.754Z,959.18
2017-10-03T07:16:42.505Z,959.18
2017-10-03T07:17:23.237Z,959.14
2017-10-03T07:18:04.023Z,959.06
2017-10-03T07:18:45.617Z,959.1
2017-10-03T07:19:26.190Z,959.07
2017-10-03T07:20:06.834Z,959.08
2017-10-03T07:20:47.706Z,959.17
2017-10-03T07:21:28.740Z,959.22
2017-10-03T07:22:09.281Z,959.17
2017-10-03T07:22:49.869Z,959.23
2017-10-03T07:23:30.534Z,959.3
2017-10-03T07:24:11.629Z,959.36
2017-10-03T07:24:51.825Z,959.4
2017-10-03T07:25:32.571Z,959.47
2017-10-03T07:26:13.385Z,959.54
2017-10-03T07:26:53.968Z,959.52
2017-10-03T07:27:34.547Z,959.65
2017-10-03T07:28:15.266Z,959.61
2017-10-03T07:28:55.854Z,959.69
2017-10-03T07:29:36.437Z,959.72
2017-10-03T07:30:17.012Z,959.7
2017-10-03T07:30:57.601Z,959.76
2017-10-03T07:31:38.191Z,959.72
2017-10-03T07:32:18.777Z,959.79
2017-10-03T07:32:59.401Z,959.84
2017-10-03T07:33:40.015Z,959.8
2017-10-03T07:34:20.639Z,959.92
2017-10-03T07:35:01.347Z,959.95
2017-10-03T07:35:41.976Z,959.89
2017-10-03T07:36:22.562Z,959.95
2017-10-03T07:37:03.386Z,959.99
2017-10-03T07:37:44.010Z,959.99
2017-10-03T07:38:24.589Z,960.04
2017-10-03T07:39:05.291Z,960
2017-10-03T07:39:46.212Z,960.02
2017-10-03T07:40:26.795Z,959.99
2017-10-03T07:41:07.379Z,960.07
2017-10-03T07:41:47.969Z,960.01
2017-10-03T07:42:29.076Z,960.11
2017-10-03T07:43:09.658Z,960.07
2017-10-03T07:43:50.236Z,960.09
2017-10-03T07:44:30.894Z,960.01
2017-10-03T07:45:11.447Z,960.01
2017-10-03T07:45:52.256Z,959.99
2017-10-03T07:46:32.838Z,959.99
2017-10-03T07:47:13.531Z,959.93
2017-10-03T07:47:54.234Z,960.01
2017-10-03T07:48:35.033Z,959.99
2017-10-03T07:49:15.621Z,960.01
2017-10-03T07:49:56.228Z,960.1
2017-10-03T07:50:36.793Z,960.18
2017-10-03T07:51:17.479Z,960.21
2017-10-03T07:51:58.074Z,960.29
2017-10-03T07:52:38.676Z,960.38
2017-10-03T07:53:20.243Z,960.39
2017-10-03T07:54:00.403Z,960.46
2017-10-03T07:54:40.981Z,960.51
2017-10-03T07:55:21.566Z,960.47
2017-10-03T07:56:02.141Z,960.57
2017-10-03T07:56:42.721Z,960.62
2017-10-03T07:57:23.298Z,960.66
2017-10-03T07:58:03.874Z,960.67
2017-10-03T07:58:44.474Z,960.66
2017-10-03T07:59:25.176Z,960.65
2017-10-03T08:00:05.766Z,960.66
2017-10-03T08:00:46.333Z,960.7
2017-10-03T08:01:26.912Z,960.69
2017-10-03T08:02:07.499Z,960.64
2017-10-03T08:02:48.084Z,960.66
2017-10-03T08:03:28.668Z,960.64
2017-10-03T08:04:09.249Z,960.59
2017-10-03T08:04:49.838Z,960.56
2017-10-03T08:05:30.423Z,960.6
2017-10-03T08:06:11.000Z,960.59
2017-10-03T08:06:51.589Z,960.56
2017-10-03T08:07:32.153Z,960.57
2017-10-03T08:08:12.743Z,960.55
2017-10-03T08:08:53.329Z,960.47
2017-10-03T08:09:34.110Z,960.45
2017-10-03T08:10:14.686Z,960.35
2017-10-03T08:10:55.262Z,960.31
2017-10-03T08:11:36.617Z,960.27
2017-10-03T08:12:17.201Z,960.31
2017-10-03T08:12:57.774Z,960.38
2017-10-03T08:13:38.359Z,960.39
2017-10-03T08:14:18.942Z,960.4
2017-10-03T08:14:59.526Z,960.42
2017-10-03T08:15:40.105Z,960.44
2017-10-03T08:16:20.673Z,960.5
2017-10-03T08:17:01.255Z,960.5
2017-10-03T08:17:41.837Z,960.54
2017-10-03T08:18:22.413Z,960.56
2017-10-03T08:19:02.998Z,960.55
2017-10-03T08:19:43.580Z,960.59
2017-10-03T08:20:24.165Z,960.66
2017-10-03T08:21:04.749Z,960.74
2017-10-03T08:21:45.335Z,960.77
2017-10-03T08:22:25.904Z,960.77
2017-10-03T08:23:06.486Z,960.79
2017-10-03T08:23:47.059Z,960.78
2017-10-03T08:24:27.637Z,960.75
2017-10-03T08:25:08.212Z,960.71
2017-10-03T08:25:48.794Z,960.75
2017-10-03T08:26:29.366Z,960.91
2017-10-03T08:27:09.955Z,961.07
2017-10-03T08:27:50.527Z,961.13
2017-10-03T08:28:31.117Z,961.13
2017-10-03T08:29:11.682Z,961.07
2017-10-03T08:29:52.263Z,961.03
2017-10-03T08:30:32.837Z,960.97
2017-10-03T08:31:13.415Z,960.99
2017-10-03T08:31:53.998Z,960.98
2017-10-03T08:32:34.580Z,961.02
2017-10-03T08:33:15.162Z,960.94
2017-10-03T08:33:55.792Z,960.9
2017-10-03T08:34:36.443Z,960.94
2017-10-03T08:35:17.025Z,960.96
2017-10-03T08:35:57.613Z,960.95
2017-10-03T08:36:38.196Z,961.03
2017-10-03T08:37:18.783Z,961.07
2017-10-03T08:37:59.364Z,961.08
2017-10-03T08:38:39.939Z,961.09
2017-10-03T08:39:20.523Z,961.12